createdAt,value
2018-06-04T00:02:10.070Z,17.4
2018-06-04T00:07:39.162Z,17.4
2018-06-04T00:13:09.578Z,17.3
2018-06-04T00:18:38.609Z,17.3
2018-06-04T00:24:07.392Z,17.2
2018-06-04T00:29:37.468Z,17.2
2018-06-04T00:35:07.526Z,17.2
2018-06-04T00:40:37.521Z,17.2
2018-06-04T00:46:07.641Z,17.1
2018-06-04T00:51:36.635Z,17.1
2018-06-04T00:57:06.668Z,17.1
2018-06-04T01:02:35.774Z,17
2018-06-04T01:08:05.762Z,16.9
2018-06-04T01:13:34.788Z,17
2018-06-04T01:19:03.838Z,16.9
2018-06-04T01:24:33.868Z,16.9
2018-06-04T01:30:03.882Z,16.9
2018-06-04T01:35:33.945Z,16.8
2018-06-04T01:41:02.985Z,16.8
2018-06-04T01:46:31.960Z,16.7
2018-06-04T01:52:00.910Z,16.6
2018-06-04T01:57:30.927Z,16.6
2018-06-04T02:02:59.919Z,16.5
2018-06-04T02:08:28.908Z,16.6
2018-06-04T02:13:58.907Z,16.6
2018-06-04T02:19:28.908Z,16.6
2018-06-04T02:24:58.912Z,16.5
2018-06-04T02:30:27.878Z,16.5
2018-06-04T02:35:56.902Z,16.5
2018-06-04T02:41:25.931Z,16.6
2018-06-04T02:46:55.903Z,16.6
2018-06-04T02:52:25.891Z,16.5
2018-06-04T02:57:54.868Z,16.5
2018-06-04T03:03:23.843Z,16.5
2018-06-04T03:08:52.863Z,16.5
2018-06-04T03:14:21.820Z,16.5
2018-06-04T03:19:51.848Z,16.5
2018-06-04T03:25:20.795Z,16.5
2018-06-04T03:30:50.787Z,16.5
2018-06-04T03:36:20.761Z,16.5
2018-06-04T03:41:50.801Z,16.5
2018-06-04T03:47:19.950Z,16.5
2018-06-04T03:52:49.722Z,16.5
2018-06-04T03:58:18.645Z,16.5
2018-06-04T04:03:47.609Z,16.4
2018-06-04T04:09:16.570Z,16.4
2018-06-04T04:14:46.665Z,16.5
2018-06-04T04:20:16.568Z,16.5
2018-06-04T04:25:46.660Z,16.6
2018-06-04T04:31:16.574Z,16.6
2018-06-04T04:36:46.644Z,16.6
2018-06-04T04:42:15.532Z,16.6
2018-06-04T04:47:44.532Z,16.6
2018-06-04T04:53:14.526Z,16.6
2018-06-04T04:58:44.492Z,16.6
2018-06-04T05:04:13.595Z,16.7
2018-06-04T05:09:42.546Z,16.7
2018-06-04T05:15:11.502Z,16.7
2018-06-04T05:20:40.666Z,16.7
2018-06-04T05:26:09.453Z,16.7
2018-06-04T05:31:38.457Z,16.7
2018-06-04T05:37:08.490Z,16.8
2018-06-04T05:42:38.482Z,16.8
2018-06-04T05:48:07.483Z,16.8
2018-06-04T05:53:37.488Z,16.8
2018-06-04T05:59:06.460Z,16.8
2018-06-04T06:04:35.493Z,16.8
2018-06-04T06:10:05.511Z,16.9
2018-06-04T06:15:35.608Z,16.9
2018-06-04T06:21:05.504Z,16.8
2018-06-04T06:26:34.597Z,16.8
2018-06-04T06:32:03.600Z,16.9
2018-06-04T06:37:32.634Z,16.9
2018-06-04T06:43:02.543Z,16.9
2018-06-04T06:48:31.587Z,17
2018-06-04T06:54:01.637Z,17
2018-06-04T06:59:30.745Z,17
2018-06-04T07:05:00.638Z,17.1
2018-06-04T07:10:30.633Z,17.1
2018-06-04T07:16:00.701Z,17
2018-06-04T07:21:30.756Z,17
2018-06-04T07:26:59.762Z,17
2018-06-04T07:32:28.760Z,17.1
2018-06-04T07:37:57.815Z,17.2
2018-06-04T07:43:27.832Z,17.3
2018-06-04T07:48:58.810Z,17.4
2018-06-04T07:54:27.038Z,17.5
2018-06-04T07:59:56.041Z,17.5
2018-06-04T08:05:26.153Z,17.6
2018-06-04T08:10:55.269Z,17.7
2018-06-04T08:16:24.370Z,17.8
2018-06-04T08:21:53.491Z,18
2018-06-04T08:27:22.758Z,18.2
2018-06-04T08:32:52.760Z,18.3
2018-06-04T08:38:22.006Z,18.3
2018-06-04T08:38:22.728Z,18.3
2018-06-04T08:43:52.085Z,18.4
2018-06-04T08:49:22.379Z,18.4
2018-06-04T08:54:51.503Z,18.4
2018-06-04T09:00:20.652Z,18.6
2018-06-04T09:00:21.266Z,18.6
2018-06-04T09:05:49.803Z,18.7
2018-06-04T09:11:20.031Z,18.8
2018-06-04T09:16:49.262Z,18.8
2018-06-04T09:22:18.471Z,19
2018-06-04T09:27:48.673Z,19.1
2018-06-04T09:33:18.989Z,19.2
2018-06-04T09:38:48.209Z,19.4
2018-06-04T09:44:18.481Z,19.5
2018-06-04T09:49:48.870Z,19.6
2018-06-04T09:55:18.347Z,19.6
2018-06-04T10:00:47.480Z,19.8
2018-06-04T10:06:19.277Z,19.9
2018-06-04T10:11:47.359Z,20
2018-06-04T10:17:17.945Z,20.1
2018-06-04T10:22:48.205Z,20.2
2018-06-04T10:28:17.922Z,20.2
2018-06-04T10:33:46.910Z,20.3
2018-06-04T10:39:16.595Z,20.2
2018-06-04T10:44:45.262Z,20.1
2018-06-04T10:50:15.666Z,20.2
2018-06-04T10:55:47.371Z,20.2
2018-06-04T11:01:16.424Z,20.3
2018-06-04T11:06:45.769Z,20.3
2018-06-04T11:12:16.369Z,20.3
2018-06-04T11:17:44.968Z,20.3
2018-06-04T11:23:14.003Z,20.4
2018-06-04T11:28:45.064Z,20.6
2018-06-04T11:34:13.759Z,20.6
2018-06-04T11:39:44.188Z,20.5
2018-06-04T11:45:14.646Z,20.5
2018-06-04T11:50:43.950Z,20.4
2018-06-04T11:56:13.356Z,20.4
2018-06-04T12:01:42.746Z,20.4
2018-06-04T12:07:13.123Z,20.4
2018-06-04T12:12:42.506Z,20.6
2018-06-04T12:18:13.090Z,20.7
2018-06-04T12:23:42.376Z,20.8
2018-06-04T12:29:11.826Z,20.8
2018-06-04T12:34:42.256Z,20.6
2018-06-04T12:40:11.682Z,20.5
2018-06-04T12:45:41.184Z,20.4
2018-06-04T12:51:11.419Z,20.2
2018-06-04T12:56:40.746Z,20.1
2018-06-04T13:02:10.168Z,20
2018-06-04T13:07:39.541Z,20
2018-06-04T13:13:09.816Z,20.1
2018-06-04T13:18:39.842Z,20.2
2018-06-04T13:24:09.556Z,20.1
2018-06-04T13:29:38.946Z,20
2018-06-04T13:35:08.520Z,19.9
2018-06-04T13:40:37.558Z,19.9
2018-06-04T13:46:06.965Z,19.9
2018-06-04T13:51:37.324Z,20
2018-06-04T13:57:06.636Z,20.1
2018-06-04T14:02:35.996Z,20.2
2018-06-04T14:08:05.465Z,20.3
2018-06-04T14:13:34.886Z,20.4
2018-06-04T14:19:04.526Z,20.5
2018-06-04T14:24:33.615Z,20.4
2018-06-04T14:30:04.000Z,20.2
2018-06-04T14:30:04.516Z,20.2
2018-06-04T14:35:34.374Z,20
2018-06-04T14:35:35.313Z,20
2018-06-04T14:41:03.661Z,19.8
2018-06-04T14:46:32.986Z,19.6
2018-06-04T14:52:02.275Z,19.4
2018-06-04T14:57:31.989Z,19.3
2018-06-04T15:03:01.069Z,19.3
2018-06-04T15:08:31.103Z,19.2
2018-06-04T15:14:01.347Z,19.1
2018-06-04T15:19:31.644Z,19.1
2018-06-04T15:25:02.009Z,19.1
2018-06-04T15:30:31.170Z,19.2
2018-06-04T15:36:01.442Z,19.1
2018-06-04T15:41:30.652Z,19
2018-06-04T15:46:59.990Z,19
2018-06-04T15:47:00.671Z,19
2018-06-04T15:52:29.185Z,19.1
2018-06-04T15:57:59.450Z,19.2
2018-06-04T16:03:29.902Z,19.3
2018-06-04T16:09:00.014Z,19.3
2018-06-04T16:14:29.240Z,19.2
2018-06-04T16:19:59.501Z,19
2018-06-04T16:25:28.745Z,19
2018-06-04T16:30:58.973Z,19
2018-06-04T16:36:29.239Z,19
2018-06-04T16:41:59.518Z,19
2018-06-04T16:47:29.769Z,18.9
2018-06-04T16:52:58.923Z,18.9
2018-06-04T16:58:29.159Z,18.8
2018-06-04T17:03:59.370Z,18.7
2018-06-04T17:09:29.561Z,18.7
2018-06-04T17:14:58.952Z,18.7
2018-06-04T17:20:28.142Z,18.7
2018-06-04T17:25:57.219Z,18.6
2018-06-04T17:31:26.395Z,18.5
2018-06-04T17:36:55.590Z,18.4
2018-06-04T17:42:25.797Z,18.3
2018-06-04T17:47:55.958Z,18.2
2018-06-04T17:53:26.062Z,18.1
2018-06-04T17:58:55.262Z,18.1
2018-06-04T18:04:25.405Z,18.2
2018-06-04T18:09:55.581Z,18.2
2018-06-04T18:15:25.695Z,18.2
2018-06-04T18:20:54.878Z,18.1
2018-06-04T18:26:25.001Z,18
2018-06-04T18:31:54.110Z,17.8
2018-06-04T18:42:54.285Z,17.5
2018-06-04T18:48:24.395Z,17.5
2018-06-04T18:53:54.412Z,17.3
2018-06-04T18:59:23.798Z,17.1
2018-06-04T19:04:53.598Z,17
2018-06-04T19:10:23.504Z,16.8
2018-06-04T19:21:21.815Z,16.5
2018-06-04T19:21:22.706Z,16.5
2018-06-04T19:26:50.524Z,16.5
2018-06-04T19:32:19.516Z,16.5
2018-06-04T19:37:48.421Z,16.4
2018-06-04T19:37:49.077Z,16.4
2018-06-04T19:43:17.373Z,16.4
2018-06-04T19:48:47.324Z,16.2
2018-06-04T19:54:16.430Z,16.1
2018-06-04T19:59:45.194Z,16
2018-06-04T20:05:14.083Z,15.9
2018-06-04T20:10:44.031Z,15.9
2018-06-04T20:16:12.920Z,15.8
2018-06-04T20:21:42.806Z,15.7
2018-06-04T20:27:11.742Z,15.6
2018-06-04T20:43:38.404Z,15.6
2018-06-04T20:49:07.296Z,15.6
2018-06-04T20:54:36.193Z,15.6
2018-06-04T21:00:05.959Z,15.5
2018-06-04T21:05:36.126Z,15.4
2018-06-04T21:11:05.709Z,15.3
2018-06-04T21:16:34.636Z,15.3
2018-06-04T21:16:34.925Z,15.3
2018-06-04T21:22:03.399Z,15.2
2018-06-04T21:27:33.177Z,15.1
2018-06-04T21:33:02.025Z,15.1
2018-06-04T21:38:32.196Z,15
2018-06-04T21:44:00.653Z,15
2018-06-04T21:49:29.506Z,15
2018-06-04T21:54:59.315Z,15
2018-06-04T22:00:29.098Z,15
2018-06-04T22:05:58.874Z,15
2018-06-04T22:11:28.731Z,14.9
2018-06-04T22:16:58.649Z,14.9
2018-06-04T22:22:27.298Z,14.9
2018-06-04T22:27:56.129Z,14.9
2018-06-04T22:33:25.019Z,15
2018-06-04T22:38:54.731Z,15
2018-06-04T22:44:23.546Z,14.9
2018-06-04T22:49:52.717Z,14.9
2018-06-04T22:55:21.157Z,14.9
2018-06-04T23:00:51.039Z,14.9
2018-06-04T23:06:21.166Z,14.9
2018-06-04T23:11:50.639Z,14.9
2018-06-04T23:17:20.389Z,14.8
2018-06-04T23:22:49.244Z,14.8
2018-06-04T23:28:19.017Z,14.7
2018-06-04T23:33:47.759Z,14.7
2018-06-04T23:39:17.737Z,14.7
2018-06-04T23:44:47.318Z,14.6
2018-06-04T23:50:16.216Z,14.5
2018-06-04T23:55:45.038Z,14.5
